createdAt,value
2023-05-23T00:01:18.559Z,0.00
2023-05-23T00:06:18.778Z,0.00
2023-05-23T00:11:18.068Z,0.00
2023-05-23T00:16:18.352Z,0.00
2023-05-23T00:21:18.526Z,0.00
2023-05-23T00:26:15.746Z,0.00
2023-05-23T00:31:16.083Z,0.00
2023-05-23T00:36:16.156Z,0.00
2023-05-23T00:41:13.372Z,0.00
2023-05-23T00:46:11.585Z,0.00
2023-05-23T00:51:11.854Z,0.00
2023-05-23T00:56:14.216Z,0.00
2023-05-23T01:01:10.274Z,0.00
2023-05-23T01:06:10.528Z,0.00
2023-05-23T01:11:08.770Z,0.00
2023-05-23T01:16:08.084Z,0.00
2023-05-23T01:21:09.303Z,0.00
2023-05-23T01:26:06.506Z,0.00
2023-05-23T01:31:05.753Z,0.00
2023-05-23T01:36:05.978Z,0.00
2023-05-23T01:41:04.184Z,0.00
2023-05-23T01:46:03.422Z,0.00
2023-05-23T01:51:02.626Z,0.00
2023-05-23T01:56:02.884Z,0.00
2023-05-23T02:01:01.183Z,0.00
2023-05-23T02:06:00.466Z,0.00
2023-05-23T02:11:02.685Z,0.00
2023-05-23T02:15:59.914Z,0.00
2023-05-23T02:20:58.133Z,0.00
2023-05-23T02:25:57.400Z,0.00
2023-05-23T02:30:56.679Z,0.00
2023-05-23T02:35:57.867Z,0.00
2023-05-23T02:40:54.094Z,0.00
2023-05-23T02:45:55.376Z,0.00
2023-05-23T02:50:53.612Z,0.00
2023-05-23T02:55:52.855Z,0.00
2023-05-23T03:00:52.123Z,0.00
2023-05-23T03:05:51.421Z,0.00
2023-05-23T03:10:51.704Z,0.00
2023-05-23T03:15:52.022Z,0.00
2023-05-23T03:20:49.118Z,0.00
2023-05-23T03:25:49.410Z,0.00
2023-05-23T03:30:48.666Z,0.00
2023-05-23T03:35:46.913Z,0.00
2023-05-23T03:40:46.185Z,0.00
2023-05-23T03:45:45.640Z,0.00
2023-05-23T03:50:46.762Z,0.00
2023-05-23T03:55:44.047Z,0.00
2023-05-23T04:00:43.273Z,0.00
2023-05-23T04:05:42.810Z,0.00
2023-05-23T04:10:42.882Z,0.00
2023-05-23T04:15:41.435Z,0.00
2023-05-23T04:20:40.332Z,0.00
2023-05-23T04:25:39.820Z,0.00
2023-05-23T04:30:38.739Z,0.00
2023-05-23T04:35:38.011Z,0.00
2023-05-23T04:40:39.270Z,0.00
2023-05-23T04:45:37.501Z,0.00
2023-05-23T04:50:35.728Z,0.00
2023-05-23T04:55:34.962Z,0.00
2023-05-23T05:00:37.145Z,0.00
2023-05-23T05:05:34.399Z,0.00
2023-05-23T05:10:32.665Z,0.00
2023-05-23T05:15:31.912Z,0.00
2023-05-23T05:20:31.171Z,0.00
2023-05-23T05:25:31.433Z,0.00
2023-05-23T05:30:30.659Z,0.00
2023-05-23T05:35:28.890Z,0.00
2023-05-23T05:40:30.128Z,0.00
2023-05-23T05:45:28.367Z,0.00
2023-05-23T05:50:26.597Z,0.00
2023-05-23T05:55:26.817Z,0.00
2023-05-23T06:00:26.044Z,0.00
2023-05-23T06:05:24.271Z,0.00
2023-05-23T06:10:23.621Z,0.00
2023-05-23T06:15:22.880Z,0.00
2023-05-23T06:20:22.125Z,0.00
2023-05-23T06:25:22.441Z,0.00
2023-05-23T06:30:21.730Z,0.00
2023-05-23T06:35:20.956Z,0.00
2023-05-23T06:40:21.232Z,0.00
2023-05-23T06:45:19.453Z,32.00
2023-05-23T06:50:17.698Z,32.00
2023-05-23T06:55:17.971Z,28.00
2023-05-23T07:00:16.224Z,40.00
2023-05-23T07:05:17.692Z,52.00
2023-05-23T07:10:14.800Z,52.00
2023-05-23T07:15:14.074Z,60.00
2023-05-23T07:20:14.356Z,56.00
2023-05-23T07:25:13.621Z,52.00
2023-05-23T07:30:11.880Z,60.00
2023-05-23T07:35:11.171Z,68.00
2023-05-23T07:40:12.605Z,80.00
2023-05-23T07:45:10.664Z,72.00
2023-05-23T07:50:09.908Z,76.00
2023-05-23T07:55:08.198Z,72.00
2023-05-23T08:00:07.444Z,64.00
2023-05-23T08:05:06.674Z,80.00
2023-05-23T08:10:05.896Z,64.00
2023-05-23T08:15:05.114Z,80.00
2023-05-23T08:20:04.348Z,88.00
2023-05-23T08:25:03.595Z,100.00
2023-05-23T08:30:02.808Z,92.00
2023-05-23T08:35:03.077Z,96.00
2023-05-23T08:40:02.371Z,88.00
2023-05-23T08:45:02.666Z,92.00
2023-05-23T08:50:01.950Z,84.00
2023-05-23T08:55:00.177Z,56.00
2023-05-23T08:59:57.427Z,48.00
2023-05-23T09:04:57.676Z,48.00
2023-05-23T09:09:57.939Z,44.00
2023-05-23T09:14:56.183Z,48.00
2023-05-23T09:19:54.575Z,40.00
2023-05-23T09:24:54.690Z,36.00
2023-05-23T09:29:54.997Z,36.00
2023-05-23T09:34:54.276Z,36.00
2023-05-23T09:39:51.573Z,40.00
2023-05-23T09:44:52.835Z,44.00
2023-05-23T09:49:49.160Z,44.00
2023-05-23T09:54:50.306Z,48.00
2023-05-23T09:59:49.589Z,56.00
2023-05-23T10:04:51.032Z,76.00
2023-05-23T10:09:48.115Z,84.00
2023-05-23T10:14:47.329Z,76.00
2023-05-23T10:19:47.578Z,44.00
2023-05-23T10:24:45.801Z,36.00
2023-05-23T10:29:45.034Z,36.00
2023-05-23T10:34:44.278Z,40.00
2023-05-23T10:39:43.625Z,44.00
2023-05-23T10:44:45.789Z,56.00
2023-05-23T10:49:41.796Z,56.00
2023-05-23T10:54:41.063Z,56.00
2023-05-23T10:59:41.348Z,64.00
2023-05-23T11:04:39.625Z,84.00
2023-05-23T11:09:38.945Z,88.00
2023-05-23T11:14:36.185Z,84.00
2023-05-23T11:19:38.674Z,80.00
2023-05-23T11:24:36.711Z,72.00
2023-05-23T11:29:35.937Z,68.00
2023-05-23T11:34:36.139Z,56.00
2023-05-23T11:39:36.372Z,60.00
2023-05-23T11:44:34.587Z,68.00
2023-05-23T11:49:33.826Z,72.00
2023-05-23T11:54:32.062Z,76.00
2023-05-23T11:59:32.334Z,60.00
2023-05-23T12:04:30.626Z,84.00
2023-05-23T12:09:29.836Z,88.00
2023-05-23T12:14:29.084Z,88.00
2023-05-23T12:19:33.399Z,112.00
2023-05-23T12:24:28.594Z,100.00
2023-05-23T12:29:26.812Z,104.00
2023-05-23T12:34:26.068Z,120.00
2023-05-23T12:39:26.322Z,108.00
2023-05-23T12:44:24.553Z,116.00
2023-05-23T12:49:23.803Z,104.00
2023-05-23T12:54:23.034Z,88.00
2023-05-23T12:59:24.294Z,76.00
2023-05-23T13:04:22.605Z,92.00
2023-05-23T13:09:20.830Z,80.00
2023-05-23T13:14:21.106Z,68.00
2023-05-23T13:19:19.408Z,56.00
2023-05-23T13:24:19.624Z,60.00
2023-05-23T13:29:17.838Z,56.00
2023-05-23T13:34:18.074Z,52.00
2023-05-23T13:39:18.148Z,40.00
2023-05-23T13:44:15.583Z,36.00
2023-05-23T13:49:16.847Z,32.00
2023-05-23T13:54:14.087Z,36.00
2023-05-23T13:59:13.283Z,36.00
2023-05-23T14:04:12.541Z,40.00
2023-05-23T14:09:12.784Z,56.00
2023-05-23T14:14:11.004Z,64.00
2023-05-23T14:19:12.278Z,56.00
2023-05-23T14:24:09.482Z,52.00
2023-05-23T14:29:08.723Z,60.00
2023-05-23T14:34:08.958Z,72.00
2023-05-23T14:39:08.481Z,88.00
2023-05-23T14:44:06.468Z,84.00
2023-05-23T14:49:05.654Z,56.00
2023-05-23T14:54:04.907Z,64.00
2023-05-23T14:59:04.132Z,52.00
2023-05-23T15:04:03.434Z,52.00
2023-05-23T15:09:03.676Z,40.00
2023-05-23T15:14:02.930Z,32.00
2023-05-23T15:19:01.185Z,32.00
2023-05-23T15:24:00.316Z,32.00
2023-05-23T15:28:59.594Z,24.00
2023-05-23T15:33:58.794Z,16.00
2023-05-23T15:38:58.045Z,8.00
2023-05-23T15:43:58.356Z,12.00
2023-05-23T15:48:56.532Z,12.00
2023-05-23T15:54:00.637Z,12.00
2023-05-23T15:58:54.924Z,4.00
2023-05-23T16:03:54.191Z,8.00
2023-05-23T16:08:56.444Z,8.00
2023-05-23T16:13:52.680Z,4.00
2023-05-23T16:18:52.961Z,12.00
2023-05-23T16:23:52.164Z,16.00
2023-05-23T16:28:50.374Z,24.00
2023-05-23T16:33:50.612Z,28.00
2023-05-23T16:38:48.835Z,24.00
2023-05-23T16:43:48.096Z,28.00
2023-05-23T16:48:47.303Z,32.00
2023-05-23T16:53:46.569Z,32.00
2023-05-23T16:58:46.854Z,32.00
2023-05-23T17:03:45.293Z,32.00
2023-05-23T17:08:44.419Z,36.00
2023-05-23T17:13:44.512Z,36.00
2023-05-23T17:18:42.926Z,40.00
2023-05-23T17:23:42.278Z,36.00
2023-05-23T17:28:41.521Z,28.00
2023-05-23T17:33:40.861Z,32.00
2023-05-23T17:38:40.012Z,36.00
2023-05-23T17:43:38.365Z,32.00
2023-05-23T17:48:47.170Z,20.00
2023-05-23T17:53:37.894Z,16.00
2023-05-23T17:58:37.113Z,12.00
2023-05-23T18:03:37.424Z,12.00
2023-05-23T18:08:37.690Z,16.00
2023-05-23T18:13:34.952Z,8.00
2023-05-23T18:18:36.239Z,8.00
2023-05-23T18:23:33.459Z,4.00
2023-05-23T18:28:32.706Z,4.00
2023-05-23T18:33:32.153Z,0.00
2023-05-23T18:38:31.329Z,0.00
2023-05-23T18:43:30.437Z,0.00
2023-05-23T18:48:29.761Z,0.00
2023-05-23T18:53:29.090Z,0.00
2023-05-23T18:58:27.373Z,0.00
2023-05-23T19:03:26.826Z,0.00
2023-05-23T19:08:26.892Z,0.00
2023-05-23T19:13:26.112Z,0.00
2023-05-23T19:18:25.176Z,0.00
2023-05-23T19:23:25.561Z,0.00
2023-05-23T19:28:23.680Z,0.00
2023-05-23T19:33:23.058Z,0.00
2023-05-23T19:38:23.222Z,0.00
2023-05-23T19:43:21.365Z,0.00
2023-05-23T19:48:21.466Z,0.00
2023-05-23T19:53:21.549Z,0.00
2023-05-23T19:58:19.000Z,0.00
2023-05-23T20:03:19.243Z,0.00
2023-05-23T20:08:17.322Z,0.00
2023-05-23T20:13:16.459Z,0.00
2023-05-23T20:18:16.148Z,0.00
2023-05-23T20:23:15.331Z,0.00
2023-05-23T20:28:14.572Z,0.00
2023-05-23T20:33:15.922Z,0.00
2023-05-23T20:38:12.854Z,0.00
2023-05-23T20:43:11.913Z,0.00
2023-05-23T20:48:11.141Z,0.00
2023-05-23T20:53:10.353Z,0.00
2023-05-23T20:58:10.403Z,0.00
2023-05-23T21:03:09.681Z,0.00
2023-05-23T21:08:08.894Z,0.00
2023-05-23T21:13:08.107Z,0.00
2023-05-23T21:18:07.372Z,0.00
2023-05-23T21:23:05.604Z,0.00
2023-05-23T21:28:04.851Z,0.00
2023-05-23T21:33:05.123Z,0.00
2023-05-23T21:38:03.351Z,0.00
2023-05-23T21:43:03.567Z,0.00
2023-05-23T21:48:01.847Z,0.00
2023-05-23T21:53:01.047Z,0.00
2023-05-23T21:58:01.286Z,0.00
2023-05-23T22:02:59.737Z,0.00
2023-05-23T22:07:58.813Z,0.00
2023-05-23T22:12:57.059Z,0.00
2023-05-23T22:17:56.342Z,0.00
2023-05-23T22:22:56.634Z,0.00
2023-05-23T22:27:55.867Z,0.00
2023-05-23T22:32:56.135Z,0.00
2023-05-23T22:37:55.349Z,0.00
2023-05-23T22:42:53.592Z,0.00
2023-05-23T22:47:54.844Z,0.00
2023-05-23T22:52:53.048Z,0.00
2023-05-23T22:57:51.308Z,0.00
2023-05-23T23:02:50.591Z,0.00
2023-05-23T23:07:50.852Z,0.00
2023-05-23T23:12:51.067Z,0.00
2023-05-23T23:17:49.349Z,0.00
2023-05-23T23:22:47.606Z,0.00
2023-05-23T23:27:46.944Z,0.00
2023-05-23T23:32:46.184Z,0.00
2023-05-23T23:37:45.424Z,0.00
2023-05-23T23:42:44.642Z,0.00
2023-05-23T23:47:43.921Z,0.00
2023-05-23T23:52:43.153Z,0.00
2023-05-23T23:57:42.390Z,0.00
